Time;durP1;ratioP1;P1;durP2;ratioP2;P2;SDS_P1;SDS_P2;PMS_P1;PMS_P2;Temp;Humidity;BMP_temperature;BMP_pressure;BME280_temperature;BME280_humidity;BME280_pressure;Samples;Min_cycle;Max_cycle;Signal;HPM_P1;HPM_P2
2022/10/14 00:02:44;;;;;;;53.40;27.40;;;;;;;8.92;90.67;98927.02;214584;1309;22695;-73
2022/10/14 00:07:45;;;;;;;50.30;27.70;;;;;;;8.93;90.65;98927.55;214456;1309;22578;-74
2022/10/14 00:12:49;;;;;;;53.20;29.30;;;;;;;8.90;90.73;98930.17;214521;1309;24260;-74
2022/10/14 00:17:51;;;;;;;53.50;28.30;;;;;;;8.84;90.75;98930.27;214471;1309;22613;-73
2022/10/14 00:22:52;;;;;;;49.60;27.70;;;;;;;8.76;90.97;98925.90;214607;1308;22451;-73
2022/10/14 00:27:55;;;;;;;51.20;26.30;;;;;;;8.67;91.04;98926.89;214548;1309;22537;-74
2022/10/14 00:32:57;;;;;;;48.50;26.50;;;;;;;8.57;91.24;98924.67;214512;1309;26223;-74
2022/10/14 00:37:59;;;;;;;52.40;27.90;;;;;;;8.54;91.49;98924.74;214549;1309;22551;-73
2022/10/14 00:43:00;;;;;;;53.30;27.30;;;;;;;8.55;91.56;98917.63;214435;1309;22527;-73
2022/10/14 00:48:03;;;;;;;53.70;28.60;;;;;;;8.54;91.65;98917.05;214557;1298;22470;-73
2022/10/14 00:53:04;;;;;;;54.20;29.10;;;;;;;8.50;91.62;98904.77;214407;1309;24261;-74
2022/10/14 00:58:07;;;;;;;49.10;26.90;;;;;;;8.48;91.85;98903.38;214448;1307;22603;-73
2022/10/14 01:03:21;;;;;;;50.10;25.60;;;;;;;8.49;92.19;98902.33;214374;1309;26423;-73
2022/10/14 01:08:43;;;;;;;45.10;25.70;;;;;;;8.53;92.36;98900.71;214549;1309;23738;-74
2022/10/14 01:14:17;;;;;;;46.00;24.80;;;;;;;8.57;92.36;98897.44;214627;1304;22488;-74
2022/10/14 01:19:50;;;;;;;46.40;24.50;;;;;;;8.60;92.51;98896.37;214585;1309;25860;-73
2022/10/14 01:25:07;;;;;;;38.90;19.00;;;;;;;8.63;92.55;98889.58;214550;1309;23374;-73
2022/10/14 01:30:18;;;;;;;44.30;24.20;;;;;;;8.63;92.57;98886.96;214601;1308;24089;-73
2022/10/14 01:35:25;;;;;;;48.20;27.20;;;;;;;8.62;92.63;98886.48;214430;1298;22512;-74
2022/10/14 01:40:32;;;;;;;46.90;26.40;;;;;;;8.63;92.64;98881.89;214456;1309;22560;-74
2022/10/14 01:45:37;;;;;;;48.00;25.80;;;;;;;8.65;92.66;98879.31;214570;1309;25136;-73
2022/10/14 01:50:44;;;;;;;47.20;26.80;;;;;;;8.65;92.72;98873.11;214401;1309;23253;-73
2022/10/14 01:55:48;;;;;;;53.00;27.10;;;;;;;8.66;92.73;98869.00;214692;1301;22469;-73
2022/10/14 02:00:52;;;;;;;52.90;25.60;;;;;;;8.67;92.84;98866.27;214549;1309;22467;-73
2022/10/14 02:06:03;;;;;;;46.40;26.10;;;;;;;8.65;92.85;98864.72;214498;1309;137205;-74
2022/10/14 02:11:14;;;;;;;53.40;26.30;;;;;;;8.64;92.98;98861.89;214479;1307;22498;-73
2022/10/14 02:16:38;;;;;;;47.90;25.70;;;;;;;8.62;93.07;98859.66;214561;1309;25150;-75
2022/10/14 02:21:45;;;;;;;45.80;26.00;;;;;;;8.60;93.18;98857.91;214606;1309;22723;-73
2022/10/14 02:26:51;;;;;;;46.30;25.40;;;;;;;8.59;93.27;98851.88;214607;1309;22472;-74
2022/10/14 02:31:55;;;;;;;50.20;25.60;;;;;;;8.60;93.41;98850.98;214689;1309;22519;-73
2022/10/14 02:36:58;;;;;;;41.10;24.20;;;;;;;8.62;93.50;98846.90;214532;1309;22474;-73
2022/10/14 02:42:00;;;;;;;49.40;25.20;;;;;;;8.63;93.60;98844.98;214572;1302;22605;-73
2022/10/14 02:47:02;;;;;;;51.80;28.30;;;;;;;8.66;93.57;98847.20;214671;1304;23042;-74
2022/10/14 02:52:04;;;;;;;53.60;27.40;;;;;;;8.68;93.76;98843.02;214801;1309;22485;-73
2022/10/14 02:57:06;;;;;;;44.00;24.10;;;;;;;8.72;93.78;98840.87;214565;1309;24314;-74
2022/10/14 03:02:07;;;;;;;50.30;28.30;;;;;;;8.76;93.83;98839.26;214627;1305;22592;-74
2022/10/14 03:07:11;;;;;;;52.10;28.60;;;;;;;8.79;93.90;98840.36;214459;1309;25269;-74
2022/10/14 03:12:17;;;;;;;53.70;30.00;;;;;;;8.84;93.90;98841.14;214501;1309;25241;-74
2022/10/14 03:17:19;;;;;;;45.60;27.50;;;;;;;8.89;93.95;98840.90;214410;1309;22485;-73
2022/10/14 03:22:22;;;;;;;55.20;28.80;;;;;;;8.94;93.99;98838.79;214651;1308;22483;-73
2022/10/14 03:27:25;;;;;;;54.00;30.20;;;;;;;8.98;94.11;98845.50;214536;1309;25317;-73
2022/10/14 03:32:30;;;;;;;56.50;29.70;;;;;;;9.03;94.11;98845.48;214382;1308;22487;-73
2022/10/14 03:38:01;;;;;;;62.40;32.70;;;;;;;9.08;94.08;98843.04;214192;1309;26384;-73
2022/10/14 03:43:04;;;;;;;49.20;29.30;;;;;;;9.14;94.22;98840.81;214376;1309;22607;-73
2022/10/14 03:48:14;;;;;;;55.50;30.90;;;;;;;9.20;94.30;98844.03;214540;1309;22494;-73
2022/10/14 03:53:16;;;;;;;52.60;31.30;;;;;;;9.23;94.26;98844.23;214498;1309;22600;-74
2022/10/14 03:58:19;;;;;;;54.40;32.00;;;;;;;9.28;94.40;98838.00;214526;1309;25317;-74
2022/10/14 04:03:29;;;;;;;50.70;28.40;;;;;;;9.32;94.40;98833.16;214611;1309;25353;-73
2022/10/14 04:08:30;;;;;;;48.20;27.40;;;;;;;9.32;94.17;98831.23;214437;1309;22527;-74
2022/10/14 04:13:36;;;;;;;55.80;31.60;;;;;;;9.33;94.04;98833.85;214570;1308;25337;-74
2022/10/14 04:18:38;;;;;;;55.30;29.00;;;;;;;9.35;94.17;98825.66;214411;1309;22477;-73
2022/10/14 04:23:41;;;;;;;61.50;32.70;;;;;;;9.40;94.36;98825.61;214607;1301;22481;-73
2022/10/14 04:28:48;;;;;;;49.90;30.10;;;;;;;9.46;94.39;98823.80;214591;1308;25288;-73
2022/10/14 04:34:03;;;;;;;45.60;27.40;;;;;;;9.48;94.20;98816.84;214546;1308;23617;-73
2022/10/14 04:39:09;;;;;;;55.70;30.20;;;;;;;9.47;94.16;98810.70;214684;1309;22508;-73
2022/10/14 04:44:12;;;;;;;49.30;28.50;;;;;;;9.48;94.32;98809.30;214496;1309;25395;-74
2022/10/14 04:49:20;;;;;;;52.00;29.40;;;;;;;9.49;94.25;98806.23;214556;1309;22541;-74
2022/10/14 04:54:33;;;;;;;49.20;29.00;;;;;;;9.51;94.33;98804.45;214452;1309;25291;-73
2022/10/14 04:59:35;;;;;;;41.50;24.80;;;;;;;9.51;94.32;98800.02;214547;1309;22490;-74
2022/10/14 05:05:15;;;;;;;57.70;30.10;;;;;;;9.51;94.27;98792.15;214432;1309;22683;-75
2022/10/14 05:10:19;;;;;;;46.80;26.20;;;;;;;9.52;94.22;98792.46;214486;1308;22464;-74
2022/10/14 05:15:21;;;;;;;43.00;25.30;;;;;;;9.50;94.35;98794.98;214335;1306;22514;-73
2022/10/14 05:20:32;;;;;;;53.30;30.50;;;;;;;9.51;94.47;98793.58;214679;1304;22612;-74
2022/10/14 05:25:35;;;;;;;56.50;30.70;;;;;;;9.52;94.49;98795.78;214651;1280;22931;-73
2022/10/14 05:30:37;;;;;;;59.00;31.90;;;;;;;9.56;94.52;98796.50;214399;1307;22517;-73
2022/10/14 05:35:42;;;;;;;61.20;33.00;;;;;;;9.61;94.65;98792.61;214630;1309;22558;-73
2022/10/14 05:41:03;;;;;;;55.50;31.70;;;;;;;9.67;94.95;98795.77;214579;1309;25493;-74
2022/10/14 05:46:06;;;;;;;58.60;32.60;;;;;;;9.73;94.98;98794.26;214596;1294;24401;-73
2022/10/14 05:51:14;;;;;;;58.10;33.20;;;;;;;9.78;94.94;98796.79;215237;1287;22568;-73
2022/10/14 05:56:16;;;;;;;57.60;30.40;;;;;;;9.81;94.79;98794.73;215012;1281;25426;-73
2022/10/14 06:01:19;;;;;;;54.40;33.00;;;;;;;9.85;94.70;98797.15;215041;1280;22490;-75
2022/10/14 06:06:21;;;;;;;68.40;35.10;;;;;;;9.89;94.83;98797.75;214656;1281;26361;-74
2022/10/14 06:11:29;;;;;;;60.80;34.10;;;;;;;9.93;94.81;98796.64;214962;1280;24074;-74
2022/10/14 06:16:31;;;;;;;55.70;32.30;;;;;;;9.97;94.64;98799.33;215069;1281;24958;-74
2022/10/14 06:21:35;;;;;;;58.50;31.60;;;;;;;10.01;94.80;98803.57;214773;1280;25359;-74
2022/10/14 06:26:37;;;;;;;64.50;33.20;;;;;;;10.06;94.76;98802.81;214950;1278;22533;-73
2022/10/14 06:31:39;;;;;;;58.50;31.60;;;;;;;10.11;94.89;98803.99;214869;1280;25425;-74
2022/10/14 06:36:41;;;;;;;54.70;29.00;;;;;;;10.19;94.84;98805.73;214772;1280;22472;-74
2022/10/14 06:41:43;;;;;;;55.70;32.10;;;;;;;10.27;94.97;98809.73;214884;1280;23440;-73
2022/10/14 06:46:52;;;;;;;47.50;28.20;;;;;;;10.36;94.92;98811.98;214721;1283;22582;-73
2022/10/14 06:51:54;;;;;;;48.90;27.30;;;;;;;10.44;94.87;98813.63;214988;1280;25262;-73
2022/10/14 06:56:55;;;;;;;45.00;28.00;;;;;;;10.52;94.79;98817.76;214862;1280;22607;-74
2022/10/14 07:01:57;;;;;;;47.60;27.10;;;;;;;10.60;94.87;98822.31;214964;1280;22527;-73
2022/10/14 07:06:59;;;;;;;48.80;27.50;;;;;;;10.70;94.78;98822.14;215037;1280;22645;-74
2022/10/14 07:12:01;;;;;;;52.10;30.40;;;;;;;10.82;94.63;98825.89;214959;1280;23558;-73
2022/10/14 07:17:03;;;;;;;52.40;29.20;;;;;;;10.94;94.85;98824.92;215288;1281;25423;-72
2022/10/14 07:22:05;;;;;;;56.10;30.20;;;;;;;11.07;94.84;98822.48;215349;1281;25318;-72
2022/10/14 07:27:08;;;;;;;51.70;28.30;;;;;;;11.24;94.88;98814.91;215125;1285;23770;-73
2022/10/14 07:32:10;;;;;;;48.80;28.60;;;;;;;11.41;94.82;98817.33;215017;1283;22581;-72
2022/10/14 07:37:12;;;;;;;49.20;29.20;;;;;;;11.59;94.60;98814.25;215079;1280;23332;-73
2022/10/14 07:42:14;;;;;;;52.40;29.30;;;;;;;11.78;94.54;98810.65;215245;1280;25374;-76
2022/10/14 07:47:16;;;;;;;52.30;28.50;;;;;;;11.96;94.35;98817.23;215156;1281;22636;-73
2022/10/14 07:52:18;;;;;;;35.60;21.80;;;;;;;12.12;94.24;98818.94;215107;1284;22548;-75
2022/10/14 07:57:22;;;;;;;36.80;22.50;;;;;;;12.21;93.78;98820.98;214969;1280;22465;-72
2022/10/14 08:02:24;;;;;;;42.40;24.40;;;;;;;12.25;93.13;98825.84;215159;1309;25393;-73
2022/10/14 08:07:28;;;;;;;44.60;25.60;;;;;;;12.25;93.01;98815.63;215216;1309;22488;-73
2022/10/14 08:12:29;;;;;;;42.30;23.00;;;;;;;12.30;92.94;98818.02;215185;1301;23353;-72
2022/10/14 08:17:31;;;;;;;41.00;24.40;;;;;;;12.36;92.73;98819.45;215180;1280;22587;-73
2022/10/14 08:22:33;;;;;;;35.60;21.80;;;;;;;12.50;92.84;98817.67;215064;1294;22492;-73
2022/10/14 08:27:35;;;;;;;37.70;22.70;;;;;;;12.73;92.89;98814.89;215123;1280;25273;-73
2022/10/14 08:32:37;;;;;;;39.90;24.70;;;;;;;13.08;92.68;98821.17;215086;1280;23533;-73
2022/10/14 08:37:39;;;;;;;36.10;21.80;;;;;;;13.41;92.25;98818.58;214925;1310;25544;-74
2022/10/14 08:43:03;;;;;;;33.70;20.10;;;;;;;13.68;91.75;98818.35;214931;1290;22495;-73
2022/10/14 08:48:13;;;;;;;37.30;21.50;;;;;;;13.83;90.76;98808.26;215163;1280;24330;-74
2022/10/14 08:53:21;;;;;;;39.40;23.00;;;;;;;13.87;90.45;98808.12;215066;1280;22545;-73
2022/10/14 08:58:44;;;;;;;35.00;20.20;;;;;;;14.04;90.75;98806.48;214958;1281;25702;-74
2022/10/14 09:03:46;;;;;;;35.90;21.90;;;;;;;14.31;89.97;98807.98;215216;1284;25289;-74
2022/10/14 09:08:50;;;;;;;33.50;20.60;;;;;;;14.61;89.90;98806.89;215238;1287;22465;-74
2022/10/14 09:13:58;;;;;;;33.30;18.20;;;;;;;15.00;89.74;98804.12;216210;1284;22498;-73
2022/10/14 09:19:04;;;;;;;25.50;14.70;;;;;;;15.32;88.02;98797.02;214957;1295;22626;-73
2022/10/14 09:24:13;;;;;;;21.10;12.40;;;;;;;15.45;86.35;98802.92;214511;1307;22499;-74
2022/10/14 09:29:20;;;;;;;17.50;10.70;;;;;;;15.54;86.38;98799.06;214523;1294;23273;-74
2022/10/14 09:34:31;;;;;;;18.90;11.50;;;;;;;15.53;85.31;98807.14;214687;1309;24324;-73
2022/10/14 09:39:38;;;;;;;18.50;11.70;;;;;;;15.46;83.87;98810.83;214260;1309;23179;-73
2022/10/14 09:44:39;;;;;;;22.80;12.30;;;;;;;15.34;83.17;98808.16;214715;1284;22871;-73
2022/10/14 09:49:45;;;;;;;17.50;11.70;;;;;;;15.34;83.55;98817.73;214577;1284;25308;-73
2022/10/14 09:54:54;;;;;;;20.70;12.60;;;;;;;15.34;82.62;98817.48;215604;1283;23631;-73
2022/10/14 09:59:59;;;;;;;20.10;12.60;;;;;;;15.44;82.95;98815.31;215088;1284;23314;-73
2022/10/14 10:05:22;;;;;;;19.00;12.90;;;;;;;15.51;82.84;98816.77;214924;1286;22473;-73
2022/10/14 10:10:24;;;;;;;25.20;12.50;;;;;;;15.54;81.79;98812.35;215150;1280;23282;-74
2022/10/14 10:15:26;;;;;;;20.70;12.00;;;;;;;15.43;81.45;98814.64;215160;1281;25456;-75
2022/10/14 10:20:32;;;;;;;21.00;12.20;;;;;;;15.46;82.12;98818.08;215005;1280;22894;-75
2022/10/14 10:25:34;;;;;;;22.10;13.00;;;;;;;15.72;82.39;98806.27;214803;1295;22567;-75
2022/10/14 10:30:58;;;;;;;18.40;11.70;;;;;;;16.04;81.93;98809.26;214967;1288;22732;-74
2022/10/14 10:36:27;;;;;;;22.50;12.20;;;;;;;16.28;81.29;98805.98;214835;1288;22559;-75
2022/10/14 10:41:35;;;;;;;17.10;11.90;;;;;;;16.36;80.19;98801.87;214710;1284;22581;-75
2022/10/14 10:47:05;;;;;;;16.30;10.50;;;;;;;16.51;79.99;98804.02;214953;1284;24553;-75
2022/10/14 10:52:27;;;;;;;23.30;14.50;;;;;;;16.68;79.30;98802.95;215089;1288;30557;-75
2022/10/14 10:57:51;;;;;;;21.00;13.40;;;;;;;16.63;78.77;98798.52;215125;1288;22495;-74
2022/10/14 11:03:20;;;;;;;24.70;13.10;;;;;;;16.47;78.30;98794.21;214656;1284;22678;-74
2022/10/14 11:14:38;;;;;;;19.00;12.40;;;;;;;16.47;79.11;98783.02;214841;1287;99931;-74
2022/10/14 11:19:51;;;;;;;19.40;12.10;;;;;;;16.74;79.61;98783.07;214479;1286;99840;-74
2022/10/14 11:25:09;;;;;;;19.80;12.90;;;;;;;17.02;79.53;98775.34;214919;1286;23785;-75
2022/10/14 11:30:36;;;;;;;22.80;12.70;;;;;;;17.16;78.57;98768.70;214963;1280;100623;-73
2022/10/14 11:35:55;;;;;;;16.50;11.90;;;;;;;17.23;78.19;98765.80;214870;1286;100304;-74
2022/10/14 11:41:03;;;;;;;20.00;12.00;;;;;;;17.34;77.02;98765.16;214789;1287;100289;-74
2022/10/14 11:46:12;;;;;;;19.60;13.60;;;;;;;17.41;76.28;98766.49;214711;1281;99979;-77
2022/10/14 11:51:17;;;;;;;19.30;11.20;;;;;;;17.40;76.37;98761.11;215062;1288;99919;-75
2022/10/14 11:56:38;;;;;;;22.10;13.30;;;;;;;17.38;74.65;98759.95;214734;1287;99868;-74
2022/10/14 12:01:43;;;;;;;20.20;13.00;;;;;;;17.34;75.58;98751.11;214554;1280;99771;-74
2022/10/14 12:06:51;;;;;;;18.00;11.40;;;;;;;17.44;74.49;98748.43;215248;1283;22522;-74
2022/10/14 12:12:00;;;;;;;23.60;13.50;;;;;;;17.40;75.08;98744.04;215102;1288;100262;-75
2022/10/14 12:17:06;;;;;;;21.20;13.90;;;;;;;17.49;75.65;98744.71;214529;1288;100007;-75
2022/10/14 12:22:18;;;;;;;19.60;12.40;;;;;;;17.56;75.68;98741.42;214765;1286;99943;-74
2022/10/14 12:27:24;;;;;;;27.90;15.20;;;;;;;17.53;75.54;98740.27;214668;1287;99839;-73
2022/10/14 12:32:30;;;;;;;22.80;13.70;;;;;;;17.49;76.12;98729.27;214980;1283;100070;-74
2022/10/14 12:37:33;;;;;;;20.80;12.40;;;;;;;17.55;75.71;98730.85;214613;1288;23867;-75
2022/10/14 12:42:42;;;;;;;18.10;11.40;;;;;;;17.60;75.60;98729.39;214804;1280;22550;-75
2022/10/14 12:48:01;;;;;;;24.00;14.10;;;;;;;17.47;74.96;98728.93;215405;1286;99659;-75
2022/10/14 12:53:19;;;;;;;25.70;13.10;;;;;;;17.17;75.08;98720.02;214606;1286;99776;-74
2022/10/14 12:58:32;;;;;;;48.20;31.00;;;;;;;16.95;75.38;98717.96;214760;1288;99787;-75
2022/10/14 13:03:42;;;;;;;26.10;14.70;;;;;;;16.86;75.91;98719.94;214818;1287;99891;-74
2022/10/14 13:09:10;;;;;;;18.20;12.00;;;;;;;16.77;76.09;98718.28;216162;1286;100000;-75
2022/10/14 13:14:24;;;;;;;21.20;12.40;;;;;;;16.70;76.25;98720.21;214932;1286;100144;-73
2022/10/14 13:19:31;;;;;;;25.90;12.30;;;;;;;16.71;76.64;98719.76;214933;1283;24321;-74
2022/10/14 13:24:39;;;;;;;21.40;11.90;;;;;;;16.74;76.54;98712.54;214761;1288;99555;-74
2022/10/14 13:30:04;;;;;;;21.20;13.50;;;;;;;16.75;76.65;98718.44;214802;1288;99684;-73
2022/10/14 13:35:29;;;;;;;23.80;10.90;;;;;;;16.65;76.80;98713.61;214788;1287;100408;-73
2022/10/14 13:40:35;;;;;;;19.00;12.00;;;;;;;16.54;76.69;98712.80;214882;1287;99955;-74
2022/10/14 13:46:14;;;;;;;22.10;12.90;;;;;;;16.42;76.85;98710.91;214730;1286;99750;-74
2022/10/14 13:51:16;;;;;;;20.20;12.10;;;;;;;16.37;76.95;98709.48;214804;1286;99876;-76
2022/10/14 13:56:36;;;;;;;25.20;14.70;;;;;;;16.30;76.74;98706.66;214608;1286;99954;-74
2022/10/14 14:01:38;;;;;;;18.70;10.80;;;;;;;16.24;76.46;98707.83;214882;1287;23781;-76
2022/10/14 14:06:45;;;;;;;21.10;11.80;;;;;;;16.22;76.83;98708.62;214325;1288;205424;-74
2022/10/14 14:12:11;;;;;;;19.70;10.60;;;;;;;16.22;76.80;98704.36;214397;1312;22890;-72
2022/10/14 14:17:18;;;;;;;18.80;12.00;;;;;;;16.16;76.60;98702.42;214535;1311;22528;-72
2022/10/14 14:22:27;;;;;;;20.90;12.20;;;;;;;16.07;76.52;98700.21;214493;1312;22470;-73
2022/10/14 14:27:29;;;;;;;17.90;11.10;;;;;;;16.00;76.63;98697.77;214398;1312;22477;-73
2022/10/14 14:32:31;;;;;;;21.30;11.70;;;;;;;15.87;76.61;98698.81;214366;1312;22508;-73
2022/10/14 14:37:34;;;;;;;19.70;11.30;;;;;;;15.70;76.68;98697.59;214320;1311;24720;-73
2022/10/14 14:43:02;;;;;;;21.30;12.60;;;;;;;15.52;77.07;98697.23;214370;1309;22607;-74
2022/10/14 14:48:05;;;;;;;22.20;12.60;;;;;;;15.35;77.55;98695.62;214282;1312;25300;-73
2022/10/14 14:53:15;;;;;;;22.40;13.50;;;;;;;15.22;77.87;98694.63;214359;1312;24311;-73
2022/10/14 14:58:17;;;;;;;;;;;;;;;15.05;77.95;98695.50;213563;1310;22518;-73
2022/10/14 15:03:20;;;;;;;23.50;12.20;;;;;;;14.85;78.33;98691.73;214382;1312;22507;-73
2022/10/14 15:08:26;;;;;;;19.50;12.10;;;;;;;14.70;78.75;98694.06;214318;1312;22492;-73
2022/10/14 15:13:37;;;;;;;23.20;13.40;;;;;;;14.59;79.29;98693.17;214287;1312;22476;-73
2022/10/14 15:18:42;;;;;;;24.20;14.10;;;;;;;14.52;79.53;98686.54;214230;1312;24529;-73
2022/10/14 15:23:51;;;;;;;22.70;13.90;;;;;;;14.44;79.91;98690.05;214278;1312;22540;-73
2022/10/14 15:29:14;;;;;;;25.50;14.10;;;;;;;14.39;80.22;98688.27;214330;1312;22869;-73
2022/10/14 15:34:20;;;;;;;29.40;17.00;;;;;;;14.28;80.47;98684.17;214385;1312;22502;-74
2022/10/14 15:39:22;;;;;;;27.40;15.20;;;;;;;14.17;80.71;98680.91;214441;1296;25565;-73
2022/10/14 15:44:23;;;;;;;31.60;17.50;;;;;;;14.07;81.08;98679.91;214271;1303;22591;-73
2022/10/14 15:49:29;;;;;;;24.50;13.30;;;;;;;13.97;81.35;98682.36;214237;1312;22873;-73
2022/10/14 15:54:31;;;;;;;33.20;17.40;;;;;;;13.88;81.65;98685.63;214167;1312;25929;-72
2022/10/14 15:59:33;;;;;;;30.50;17.70;;;;;;;13.80;81.97;98683.26;214309;1312;22658;-73
2022/10/14 16:04:35;;;;;;;31.30;18.60;;;;;;;13.71;82.23;98682.98;214315;1312;24318;-74
2022/10/14 16:09:46;;;;;;;40.70;21.30;;;;;;;13.64;82.50;98689.31;214305;1312;22475;-74
2022/10/14 16:14:48;;;;;;;29.00;18.30;;;;;;;13.57;82.81;98687.23;214287;1312;25358;-73
2022/10/14 16:19:50;;;;;;;29.70;18.00;;;;;;;13.48;83.28;98690.73;214255;1312;25302;-73
2022/10/14 16:24:51;;;;;;;25.00;15.00;;;;;;;13.41;83.60;98697.49;214255;1312;24269;-72
2022/10/14 16:29:53;;;;;;;28.70;16.00;;;;;;;13.34;84.12;98703.09;214278;1312;25283;-73
2022/10/14 16:34:55;;;;;;;25.20;14.90;;;;;;;13.28;84.37;98699.89;214263;1312;22517;-73
2022/10/14 16:39:57;;;;;;;31.40;16.70;;;;;;;13.22;84.61;98694.98;214247;1311;24006;-72
2022/10/14 16:44:59;;;;;;;29.70;15.10;;;;;;;13.15;84.68;98692.23;214180;1312;24307;-73
2022/10/14 16:50:01;;;;;;;24.00;14.40;;;;;;;13.10;84.91;98691.34;214176;1312;22499;-72
2022/10/14 16:55:03;;;;;;;31.70;16.40;;;;;;;13.04;85.21;98698.54;214204;1312;22496;-73
2022/10/14 17:00:05;;;;;;;25.40;14.50;;;;;;;12.98;85.54;98701.58;214197;1312;25258;-73
2022/10/14 17:05:08;;;;;;;25.50;14.70;;;;;;;12.93;85.88;98700.59;214191;1312;25393;-72
2022/10/14 17:10:10;;;;;;;26.80;14.70;;;;;;;12.88;86.11;98696.60;214241;1312;24305;-72
2022/10/14 17:15:12;;;;;;;26.10;16.10;;;;;;;12.82;86.24;98696.77;214239;1296;22624;-74
2022/10/14 17:20:13;;;;;;;23.50;13.90;;;;;;;12.77;86.59;98699.34;214233;1312;22473;-73
2022/10/14 17:25:16;;;;;;;23.40;13.70;;;;;;;12.74;86.67;98698.39;214143;1312;22500;-73
2022/10/14 17:30:18;;;;;;;25.20;15.20;;;;;;;12.72;86.83;98698.05;214246;1312;25505;-73
2022/10/14 17:35:22;;;;;;;28.90;16.80;;;;;;;12.70;86.97;98694.88;214232;1312;24336;-74
2022/10/14 17:40:25;;;;;;;27.20;14.90;;;;;;;12.67;86.96;98698.21;214168;1312;22512;-74
2022/10/14 17:45:27;;;;;;;24.30;14.70;;;;;;;12.63;87.16;98695.69;214234;1312;24411;-73
2022/10/14 17:50:29;;;;;;;31.80;17.40;;;;;;;12.59;87.39;98700.48;214164;1312;24286;-73
2022/10/14 17:55:34;;;;;;;26.90;15.20;;;;;;;12.55;87.43;98704.78;214286;1312;24254;-73
2022/10/14 18:00:36;;;;;;;24.70;14.70;;;;;;;12.49;87.42;98701.02;214231;1296;22479;-73
2022/10/14 18:05:39;;;;;;;26.80;16.70;;;;;;;12.42;87.52;98703.82;214152;1312;22955;-73
2022/10/14 18:10:47;;;;;;;36.10;19.00;;;;;;;12.33;87.76;98701.04;214217;1297;22553;-71
2022/10/14 18:15:49;;;;;;;31.40;17.50;;;;;;;12.25;88.01;98703.04;214290;1309;22504;-74
2022/10/14 18:20:55;;;;;;;33.30;17.50;;;;;;;12.15;88.12;98702.19;214220;1306;22492;-73
2022/10/14 18:26:05;;;;;;;28.90;17.30;;;;;;;12.04;88.26;98699.77;214148;1311;22544;-73
2022/10/14 18:31:16;;;;;;;27.50;16.50;;;;;;;11.92;88.52;98695.20;214167;1300;22516;-74
2022/10/14 18:36:22;;;;;;;31.00;18.40;;;;;;;11.81;88.86;98700.15;214259;1312;25305;-73
2022/10/14 18:41:25;;;;;;;43.80;22.40;;;;;;;11.69;89.21;98697.47;214405;1312;25409;-75
2022/10/14 18:46:32;;;;;;;45.50;24.50;;;;;;;11.58;89.32;98699.77;214239;1312;22490;-72
2022/10/14 18:51:37;;;;;;;40.40;22.90;;;;;;;11.45;89.24;98693.02;214159;1312;24261;-74
2022/10/14 18:56:39;;;;;;;41.30;22.40;;;;;;;11.32;89.51;98687.39;214332;1312;22509;-72
2022/10/14 19:01:41;;;;;;;32.80;18.50;;;;;;;11.22;89.81;98688.16;214198;1299;22615;-72
2022/10/14 19:06:45;;;;;;;33.80;19.90;;;;;;;11.10;90.09;98688.25;214204;1312;22470;-73
2022/10/14 19:11:52;;;;;;;36.10;19.90;;;;;;;11.00;90.53;98691.04;214312;1304;24373;-73
2022/10/14 19:16:54;;;;;;;38.80;20.80;;;;;;;10.89;90.78;98691.33;214191;1312;24392;-74
2022/10/14 19:21:58;;;;;;;39.10;21.90;;;;;;;10.78;91.08;98692.50;214185;1304;22485;-74
2022/10/14 19:27:00;;;;;;;47.90;25.00;;;;;;;10.67;91.52;98691.92;214211;1312;25321;-72
2022/10/14 19:32:02;;;;;;;38.70;21.50;;;;;;;10.56;91.53;98692.56;214208;1312;22506;-73
2022/10/14 19:37:04;;;;;;;41.40;22.70;;;;;;;10.43;91.64;98691.02;214063;1312;24235;-72
2022/10/14 19:42:06;;;;;;;49.40;24.80;;;;;;;10.32;92.01;98690.73;214109;1312;24268;-74
2022/10/14 19:47:07;;;;;;;40.70;21.60;;;;;;;10.23;92.18;98688.06;214184;1312;24325;-74
2022/10/14 19:52:09;;;;;;;49.30;25.10;;;;;;;10.13;92.37;98685.61;214204;1312;23206;-73
2022/10/14 19:57:11;;;;;;;45.50;24.70;;;;;;;10.04;92.35;98678.27;214225;1312;22498;-73
2022/10/14 20:02:13;;;;;;;48.30;24.10;;;;;;;9.95;92.58;98681.45;214176;1312;25503;-73
2022/10/14 20:07:15;;;;;;;48.20;23.90;;;;;;;9.86;92.85;98682.89;214116;1306;22609;-73
2022/10/14 20:12:16;;;;;;;50.10;25.30;;;;;;;9.78;93.06;98682.77;214175;1312;25469;-73
2022/10/14 20:17:18;;;;;;;50.70;25.30;;;;;;;9.72;93.21;98681.39;214239;1311;22537;-74
2022/10/14 20:22:25;;;;;;;49.00;25.20;;;;;;;9.65;93.46;98681.19;214135;1312;22493;-73
2022/10/14 20:27:27;;;;;;;48.60;26.00;;;;;;;9.59;93.62;98675.37;214214;1312;25348;-73
2022/10/14 20:32:28;;;;;;;40.10;20.20;;;;;;;9.52;93.77;98676.30;214239;1312;22490;-73
2022/10/14 20:37:31;;;;;;;51.30;27.00;;;;;;;9.47;94.02;98682.98;214105;1312;25323;-72
2022/10/14 20:42:33;;;;;;;49.20;24.80;;;;;;;9.43;94.40;98683.89;214120;1312;24376;-73
2022/10/14 20:47:35;;;;;;;51.70;26.30;;;;;;;9.40;94.67;98682.73;214009;1312;25234;-73
2022/10/14 20:52:37;;;;;;;57.80;29.60;;;;;;;9.36;94.64;98680.48;214159;1312;22601;-74
2022/10/14 20:57:39;;;;;;;58.10;29.70;;;;;;;9.30;94.68;98677.70;214222;1311;24259;-72
2022/10/14 21:02:41;;;;;;;57.80;28.80;;;;;;;9.24;94.77;98669.83;214221;1304;22484;-74
2022/10/14 21:07:43;;;;;;;53.10;26.40;;;;;;;9.18;94.90;98669.69;214211;1312;22482;-73
2022/10/14 21:12:52;;;;;;;44.90;23.70;;;;;;;9.13;95.08;98667.59;214142;1297;22501;-72
2022/10/14 21:17:54;;;;;;;52.00;26.50;;;;;;;9.13;95.85;98664.66;214151;1312;24319;-74
2022/10/14 21:22:56;;;;;;;44.10;23.70;;;;;;;9.12;95.97;98665.05;214173;1312;22536;-72
2022/10/14 21:27:58;;;;;;;50.40;26.50;;;;;;;9.11;96.48;98666.33;214198;1312;22469;-72
2022/10/14 21:33:01;;;;;;;49.70;26.00;;;;;;;9.11;96.71;98658.95;214146;1307;22518;-73
2022/10/14 21:38:03;;;;;;;58.70;29.00;;;;;;;9.06;96.63;98651.57;214192;1310;22672;-72
2022/10/14 21:43:04;;;;;;;60.30;29.00;;;;;;;8.99;96.32;98649.75;214269;1312;25464;-75
2022/10/14 21:48:13;;;;;;;51.80;27.10;;;;;;;8.91;96.36;98644.75;214212;1312;22556;-74
2022/10/14 21:53:15;;;;;;;53.50;25.80;;;;;;;8.84;96.66;98641.43;214225;1311;22470;-75
2022/10/14 21:58:16;;;;;;;47.40;24.50;;;;;;;8.82;97.13;98639.91;214272;1312;24882;-73
2022/10/14 22:03:18;;;;;;;49.70;25.70;;;;;;;8.80;97.27;98638.16;214148;1312;25291;-73
2022/10/14 22:08:22;;;;;;;60.70;29.80;;;;;;;8.81;97.93;98634.25;214142;1312;23910;-73
2022/10/14 22:13:24;;;;;;;56.80;29.40;;;;;;;8.81;98.17;98625.06;214214;1312;22487;-74
2022/10/14 22:18:26;;;;;;;63.10;33.20;;;;;;;8.79;97.86;98620.80;214167;1304;24338;-73
2022/10/14 22:23:28;;;;;;;63.20;30.00;;;;;;;8.79;97.86;98618.19;214234;1304;22542;-73
2022/10/14 22:28:30;;;;;;;60.50;29.50;;;;;;;8.87;98.35;98621.45;214376;1308;22476;-73
2022/10/14 22:33:35;;;;;;;56.90;28.20;;;;;;;8.96;98.62;98619.76;214469;1312;22523;-74
2022/10/14 22:38:39;;;;;;;58.50;28.50;;;;;;;9.05;98.70;98617.75;214254;1312;22626;-73
2022/10/14 22:43:52;;;;;;;40.30;23.50;;;;;;;9.11;98.69;98618.38;214405;1312;22549;-72
2022/10/14 22:48:56;;;;;;;54.60;26.80;;;;;;;9.15;98.82;98616.95;214458;1312;22533;-73
2022/10/14 22:53:58;;;;;;;60.40;30.20;;;;;;;9.16;98.62;98612.56;214297;1312;22506;-73
2022/10/14 22:59:05;;;;;;;58.20;28.60;;;;;;;9.14;98.68;98608.69;214225;1312;22464;-74
2022/10/14 23:04:07;;;;;;;59.40;28.10;;;;;;;9.11;98.45;98608.92;214344;1312;24382;-72
2022/10/14 23:09:14;;;;;;;55.30;28.50;;;;;;;9.07;98.52;98598.72;214139;1312;22499;-73
2022/10/14 23:14:16;;;;;;;50.40;24.50;;;;;;;9.04;98.61;98595.85;214241;1311;25279;-73
2022/10/14 23:19:17;;;;;;;57.50;26.50;;;;;;;9.04;98.82;98592.90;214182;1312;25727;-73
2022/10/14 23:24:19;;;;;;;64.50;28.20;;;;;;;9.07;98.79;98590.48;214335;1312;24620;-74